TimeCST,TemperatureF,Dew PointF,Humidity,Sea Level PressureIn,VisibilityMPH,Wind Direction,Wind SpeedMPH,Gust SpeedMPH,PrecipitationIn,Events,Conditions,WindDirDegrees,DateUTC
12:10 AM,15.4,8.2,73,29.66,10.0,North,16.1,-,N/A,,Scattered Clouds,360,2010-12-31 06:10:00
12:30 AM,15.3,7.7,72,29.67,10.0,North,10.4,-,N/A,,Clear,10,2010-12-31 06:30:00
12:50 AM,15.1,7.7,73,29.67,10.0,NNE,13.8,17.3,N/A,,Clear,20,2010-12-31 06:50:00
1:10 AM,14.0,6.8,73,29.66,10.0,North,15.0,-,N/A,,Clear,10,2010-12-31 07:10:00
1:30 AM,13.1,5.7,72,29.66,10.0,North,13.8,-,N/A,,Clear,360,2010-12-31 07:30:00
1:50 AM,13.1,5.9,73,29.65,10.0,NNE,17.3,-,N/A,,Clear,20,2010-12-31 07:50:00
2:10 AM,12.9,5.7,73,29.66,10.0,North,15.0,-,N/A,,Clear,10,2010-12-31 08:10:00
2:30 AM,12.9,5.9,74,29.68,10.0,North,12.7,-,N/A,,Scattered Clouds,360,2010-12-31 08:30:00
2:50 AM,13.1,6.6,75,29.68,10.0,North,12.7,16.1,N/A,,Mostly Cloudy,10,2010-12-31 08:50:00
3:10 AM,13.3,6.8,75,29.66,10.0,NNE,15.0,-,N/A,,Overcast,20,2010-12-31 09:10:00
3:30 AM,13.5,7.3,77,29.65,10.0,NNE,16.1,-,N/A,,Overcast,30,2010-12-31 09:30:00
3:50 AM,13.6,7.5,77,29.63,10.0,NNE,13.8,20.7,N/A,,Overcast,20,2010-12-31 09:50:00
4:10 AM,13.5,7.7,78,29.63,10.0,NE,12.7,-,N/A,,Overcast,40,2010-12-31 10:10:00
4:30 AM,13.5,7.7,78,29.61,10.0,NE,13.8,-,N/A,,Overcast,40,2010-12-31 10:30:00
4:50 AM,13.3,7.7,78,29.64,10.0,NNE,9.2,-,N/A,,Overcast,30,2010-12-31 10:50:00
5:10 AM,13.1,8.2,81,29.62,5.0,NNE,12.7,18.4,N/A,Snow,Light Snow,20,2010-12-31 11:10:00
5:30 AM,13.1,9.3,85,29.61,2.0,North,10.4,-,N/A,Snow,Light Snow,10,2010-12-31 11:30:00
5:50 AM,12.9,9.5,86,29.61,2.0,North,12.7,-,N/A,Snow,Light Snow,10,2010-12-31 11:50:00
6:10 AM,12.6,9.3,87,29.59,2.0,NNE,11.5,18.4,N/A,Snow,Light Snow,20,2010-12-31 12:10:00
6:30 AM,12.6,9.5,88,29.57,3.0,NE,9.2,-,N/A,Snow,Light Snow,40,2010-12-31 12:30:00
6:50 AM,12.9,9.9,88,29.57,3.0,NE,9.2,17.3,N/A,Snow,Light Snow,50,2010-12-31 12:50:00
7:10 AM,13.1,10.0,88,29.49,4.0,ENE,16.1,21.9,N/A,,Overcast,60,2010-12-31 13:10:00
7:30 AM,13.8,10.9,88,29.51,4.0,NE,6.9,-,N/A,,Overcast,50,2010-12-31 13:30:00
7:50 AM,14.0,10.4,86,29.53,10.0,NE,10.4,-,N/A,,Overcast,40,2010-12-31 13:50:00
8:10 AM,14.2,10.6,86,29.59,4.0,West,6.9,-,N/A,Snow,Light Snow,280,2010-12-31 14:10:00
8:30 AM,14.2,10.9,87,29.57,2.0,North,5.8,-,N/A,Snow,Light Snow,350,2010-12-31 14:30:00
8:50 AM,14.5,10.9,86,29.56,5.0,North,5.8,-,N/A,Snow,Light Snow,10,2010-12-31 14:50:00
9:10 AM,14.4,10.8,86,29.66,3.0,WSW,18.4,23.0,N/A,Snow,Light Snow,250,2010-12-31 15:10:00
9:30 AM,14.4,10.6,85,29.62,2.0,West,9.2,16.1,N/A,Snow,Light Snow,280,2010-12-31 15:30:00
9:50 AM,14.0,10.8,87,29.61,1.0,WNW,10.4,-,N/A,Snow,Light Snow,300,2010-12-31 15:50:00
10:10 AM,13.6,9.7,84,29.64,7.0,WNW,15.0,-,N/A,Snow,Light Snow,290,2010-12-31 16:10:00
10:30 AM,13.5,9.3,84,29.66,5.0,West,15.0,-,N/A,,Overcast,280,2010-12-31 16:30:00
10:50 AM,13.6,10.0,86,29.61,1.2,NW,8.1,-,N/A,Snow,Light Snow,320,2010-12-31 16:50:00
11:10 AM,13.6,9.5,84,29.63,5.0,WNW,11.5,-,N/A,Snow,Light Snow,300,2010-12-31 17:10:00
11:30 AM,13.6,9.0,82,29.63,3.0,WNW,13.8,-,N/A,Snow,Light Snow,290,2010-12-31 17:30:00
11:50 AM,13.8,8.8,80,29.64,7.0,West,13.8,17.3,N/A,Snow,Light Snow,270,2010-12-31 17:50:00
12:10 PM,14.4,9.5,81,29.64,5.0,West,15.0,18.4,N/A,Snow,Light Snow,270,2010-12-31 18:10:00
12:30 PM,14.2,8.1,77,29.65,10.0,West,16.1,19.6,N/A,Snow,Light Snow,270,2010-12-31 18:30:00
12:50 PM,14.0,8.6,79,29.65,10.0,West,11.5,-,N/A,,Overcast,260,2010-12-31 18:50:00
1:10 PM,14.4,7.9,75,29.65,10.0,West,15.0,19.6,N/A,,Overcast,270,2010-12-31 19:10:00
1:30 PM,14.0,7.5,75,29.66,10.0,West,13.8,18.4,N/A,,Overcast,270,2010-12-31 19:30:00
1:50 PM,13.5,6.4,74,29.67,10.0,West,18.4,23.0,N/A,,Overcast,270,2010-12-31 19:50:00
2:10 PM,13.1,5.7,72,29.67,10.0,West,17.3,21.9,N/A,,Overcast,270,2010-12-31 20:10:00
2:30 PM,12.9,5.4,72,29.68,10.0,West,16.1,20.7,N/A,,Overcast,280,2010-12-31 20:30:00
2:50 PM,12.7,3.7,67,29.69,10.0,WSW,16.1,25.3,N/A,,Overcast,250,2010-12-31 20:50:00
3:10 PM,12.4,2.7,65,29.71,10.0,WSW,20.7,27.6,N/A,,Overcast,250,2010-12-31 21:10:00
3:30 PM,12.6,3.2,66,29.73,10.0,WSW,21.9,26.5,N/A,,Overcast,250,2010-12-31 21:30:00
3:50 PM,12.0,2.1,65,29.74,10.0,WSW,20.7,25.3,N/A,,Mostly Cloudy,240,2010-12-31 21:50:00
4:10 PM,11.3,1.2,64,29.75,10.0,WSW,18.4,26.5,N/A,,Mostly Cloudy,250,2010-12-31 22:10:00
4:30 PM,11.8,0.5,60,29.76,10.0,West,18.4,-,N/A,,Overcast,260,2010-12-31 22:30:00
4:50 PM,11.3,1.4,64,29.76,10.0,WSW,17.3,25.3,N/A,,Overcast,250,2010-12-31 22:50:00
5:10 PM,10.6,1.8,68,29.77,10.0,WSW,23.0,27.6,N/A,,Mostly Cloudy,250,2010-12-31 23:10:00
5:30 PM,10.0,1.0,67,29.78,10.0,WSW,21.9,25.3,N/A,,Scattered Clouds,250,2010-12-31 23:30:00
5:50 PM,9.3,0.7,68,29.78,10.0,WSW,17.3,25.3,N/A,,Scattered Clouds,250,2010-12-31 23:50:00
6:10 PM,8.6,-0.4,67,29.80,10.0,West,11.5,-,N/A,,Scattered Clouds,260,2011-01-01 00:10:00
6:30 PM,7.7,-0.6,69,29.81,10.0,WSW,16.1,20.7,N/A,,Clear,250,2011-01-01 00:30:00
6:50 PM,7.5,-0.9,68,29.81,10.0,WSW,13.8,-,N/A,,Clear,250,2011-01-01 00:50:00
7:10 PM,7.3,-1.8,66,29.82,10.0,WSW,17.3,-,N/A,,Clear,250,2011-01-01 01:10:00
7:30 PM,6.8,-2.2,67,29.84,10.0,WSW,16.1,23.0,N/A,,Clear,250,2011-01-01 01:30:00
7:50 PM,6.4,-2.2,68,29.83,10.0,WSW,17.3,-,N/A,,Clear,250,2011-01-01 01:50:00
8:10 PM,6.6,-2.7,66,29.84,10.0,WSW,21.9,25.3,N/A,,Clear,240,2011-01-01 02:10:00
8:30 PM,6.8,-3.8,62,29.84,10.0,WSW,19.6,25.3,N/A,,Clear,250,2011-01-01 02:30:00
8:50 PM,6.8,-4.9,59,29.84,10.0,West,19.6,25.3,N/A,,Clear,260,2011-01-01 02:50:00
9:10 PM,6.6,-4.4,61,29.84,10.0,WSW,15.0,-,N/A,,Clear,250,2011-01-01 03:10:00
9:30 PM,6.4,-4.0,62,29.84,10.0,WSW,15.0,-,N/A,,Clear,250,2011-01-01 03:30:00
9:50 PM,7.0,-3.6,62,29.84,10.0,WSW,15.0,20.7,N/A,,Scattered Clouds,250,2011-01-01 03:50:00
10:10 PM,6.8,-3.1,64,29.85,10.0,WSW,15.0,-,N/A,,Clear,250,2011-01-01 04:10:00
10:30 PM,6.8,-2.7,65,29.86,10.0,West,16.1,21.9,N/A,,Clear,260,2011-01-01 04:30:00
10:50 PM,7.2,-3.1,63,29.86,10.0,West,17.3,24.2,N/A,,Clear,260,2011-01-01 04:50:00
11:10 PM,6.8,-2.4,66,29.87,10.0,West,12.7,-,N/A,,Clear,260,2011-01-01 05:10:00
11:30 PM,7.5,-2.9,62,29.87,10.0,West,15.0,21.9,N/A,,Clear,260,2011-01-01 05:30:00
11:50 PM,8.2,-2.9,60,29.87,10.0,West,17.3,24.2,N/A,,Clear,260,2011-01-01 05:50:00